If you wish to contribute or participate in the discussions about articles you are invited to join SKYbrary as a registered user

LTBS

From SKYbrary Wiki

Jump to: navigation, search
Airport
Code LTBS
Name Dalaman
Region Asia and Pacific
Territory Turkey
Location Dalaman
Elevation

6.096000 m20 ft

Coordinates 36° 42' 45" N, 28° 47' 29" E
All Airports
in LT
LTAC, LTAG, LTAI, LTBA, LTBS
Runways
Designator Length Width Surface
1/19 3000 m9,842.52 ft 45 m147.638 ft CON


METAR
Observation LTBS 241450Z 24014KT 9999 FEW020 28/21 Q1006 NOSIG
Station Dalaman
Elevation 2 metres
Date/Time 24 July 2014 14:50:00
Wind direction 240°
Wind speed 14 kts
Clouds few clouds
Clouds code FEW
Temperature 28°C
Dew point 21°C
Humidity 65%
QNH 1006 hPa
Weather condition n/a


RI
Tag(s) Runway Misidentification

Dalaman Airport

ICAO: LTBS IATA: DLM

Description

International airport serving south-west Turkey, located 3 nm5,556 m
5.556 km
18,228.346 ft
south of the town of Dalaman and with high ground to the north, east, and west.

Climatology

Typical Mediterranean climate with hot dry summers and mild, wet winters (Köppen climate classification Csa).

Maps

Terrain

Loading map...

Airport Layout

Loading map...

Flight Safety Considerations

Accidents & Serious Incidents at or in vicinity of LTBS

None on SKYbrary

Personal tools